Time;durP1;ratioP1;P1;durP2;ratioP2;P2;SDS_P1;SDS_P2;PMS_P1;PMS_P2;Temp;Humidity;BMP_temperature;BMP_pressure;BME280_temperature;BME280_humidity;BME280_pressure;Samples;Min_cycle;Max_cycle;Signal;HPM_P1;HPM_P2
2022/01/25 00:09:33;;;;;;;4.88;1.95;;;;;;;;;;5009632;28;20041;-70
2022/01/25 00:31:10;;;;;;;2.75;1.20;;;;;;;;;;5009091;28;20109;-74
2022/01/25 00:33:37;;;;;;;2.67;1.45;;;;;;;;;;5008240;28;20017;-69
2022/01/25 00:36:04;;;;;;;3.25;1.40;;;;;;;;;;5008387;28;20421;-70
2022/01/25 00:38:30;;;;;;;3.28;1.35;;;;;;;;;;5006907;28;20050;-69
2022/01/25 00:40:57;;;;;;;1.95;1.20;;;;;;;;;;5007557;28;20030;-82
2022/01/25 00:43:25;;;;;;;7.15;1.40;;;;;;;;;;5009035;28;20022;-71
2022/01/25 00:45:54;;;;;;;2.83;1.20;;;;;;;;;;5009920;28;20026;-70
2022/01/25 00:48:31;;;;;;;4.68;1.92;;;;;;;;;;5000957;28;20087;-70
2022/01/25 00:51:17;;;;;;;2.67;1.33;;;;;;;;;;5009307;28;20046;-70
2022/01/25 00:54:02;;;;;;;3.75;1.48;;;;;;;;;;5003228;28;20510;-83
2022/01/25 00:56:30;;;;;;;8.05;2.05;;;;;;;;;;5000172;28;20034;-70
2022/01/25 00:58:57;;;;;;;4.40;1.58;;;;;;;;;;5008732;28;20021;-85
2022/01/25 01:01:23;;;;;;;6.63;1.48;;;;;;;;;;5007972;28;20030;-70
2022/01/25 01:03:49;;;;;;;2.85;1.42;;;;;;;;;;5008533;28;20504;-71
2022/01/25 01:06:16;;;;;;;3.63;1.50;;;;;;;;;;5008325;28;20117;-70
2022/01/25 01:08:43;;;;;;;5.70;1.60;;;;;;;;;;5007069;28;20025;-70
2022/01/25 01:11:14;;;;;;;3.45;1.33;;;;;;;;;;5008972;28;20036;-86
2022/01/25 01:16:40;;;;;;;3.45;1.20;;;;;;;;;;5007415;28;20112;-81
2022/01/25 01:45:44;;;;;;;2.80;1.20;;;;;;;;;;5007824;28;20396;-70
2022/01/25 01:48:16;;;;;;;3.03;1.13;;;;;;;;;;5007290;28;20448;-69
2022/01/25 01:50:42;;;;;;;;;;;;;;;;;;5008616;28;20018;-69
2022/01/25 01:53:08;;;;;;;4.43;1.02;;;;;;;;;;5006949;28;19951;-70
2022/01/25 01:55:35;;;;;;;3.65;1.27;;;;;;;;;;5006061;28;20485;-69
2022/01/25 01:58:02;;;;;;;1.95;1.10;;;;;;;;;;5008166;28;20108;-70
2022/01/25 02:00:33;;;;;;;1.80;1.30;;;;;;;;;;5005940;28;20069;-70
2022/01/25 02:03:00;;;;;;;1.85;1.10;;;;;;;;;;5007682;28;20109;-69
2022/01/25 02:05:27;;;;;;;2.63;1.13;;;;;;;;;;5005896;28;20030;-69
2022/01/25 02:07:54;;;;;;;5.20;1.50;;;;;;;;;;5006331;28;20109;-84
2022/01/25 02:10:20;;;;;;;2.65;1.10;;;;;;;;;;5007259;28;20040;-78
2022/01/25 02:12:49;;;;;;;2.35;1.25;;;;;;;;;;5007508;28;20021;-69
2022/01/25 02:15:15;;;;;;;2.80;1.90;;;;;;;;;;5007807;28;20494;-70
2022/01/25 02:23:13;;;;;;;3.40;1.83;;;;;;;;;;4998688;28;20080;-70
2022/01/25 02:25:39;;;;;;;3.15;1.40;;;;;;;;;;5004796;28;20068;-69
2022/01/25 02:28:05;;;;;;;3.55;1.50;;;;;;;;;;5003318;28;20021;-70
2022/01/25 02:30:31;;;;;;;4.53;1.52;;;;;;;;;;5004929;28;20037;-70
2022/01/25 02:32:57;;;;;;;3.40;1.48;;;;;;;;;;5004705;28;20662;-70
2022/01/25 02:35:24;;;;;;;5.00;1.90;;;;;;;;;;4998404;28;20507;-70
2022/01/25 02:37:50;;;;;;;8.57;1.52;;;;;;;;;;5001246;28;20556;-70
2022/01/25 02:40:16;;;;;;;2.28;1.60;;;;;;;;;;5002800;28;20041;-70
2022/01/25 02:42:42;;;;;;;5.20;1.55;;;;;;;;;;5002637;28;20020;-70
2022/01/25 02:45:15;;;;;;;2.22;1.42;;;;;;;;;;5002339;28;20115;-70
2022/01/25 02:50:26;;;;;;;4.65;1.73;;;;;;;;;;4994445;28;20044;-70
2022/01/25 02:52:52;;;;;;;4.43;1.30;;;;;;;;;;5002376;28;20022;-70
2022/01/25 02:55:18;;;;;;;5.57;1.60;;;;;;;;;;5000778;28;20038;-70
2022/01/25 02:57:45;;;;;;;5.53;1.80;;;;;;;;;;5002568;28;20025;-70
2022/01/25 03:00:12;;;;;;;3.60;1.48;;;;;;;;;;5000808;28;20555;-69
2022/01/25 03:02:38;;;;;;;4.18;1.25;;;;;;;;;;5002110;28;20030;-70
2022/01/25 03:05:05;;;;;;;4.50;1.50;;;;;;;;;;5001439;28;20046;-70
2022/01/25 03:07:32;;;;;;;3.33;1.40;;;;;;;;;;5000640;28;20613;-70
2022/01/25 03:09:59;;;;;;;3.45;1.42;;;;;;;;;;5000970;28;20254;-70
2022/01/25 03:12:37;;;;;;;2.65;1.20;;;;;;;;;;5006962;28;20030;-70
2022/01/25 03:17:48;;;;;;;3.50;1.52;;;;;;;;;;5000072;28;20033;-70
2022/01/25 03:20:20;;;;;;;2.30;1.20;;;;;;;;;;5005571;28;20038;-70
2022/01/25 03:25:19;;;;;;;7.82;1.70;;;;;;;;;;5005669;28;20597;-81
2022/01/25 03:27:45;;;;;;;4.60;1.63;;;;;;;;;;5005038;28;20404;-70
2022/01/25 03:30:11;;;;;;;3.47;1.70;;;;;;;;;;5006398;28;20033;-69
2022/01/25 03:32:38;;;;;;;3.30;1.45;;;;;;;;;;5004506;28;20026;-70
2022/01/25 03:35:05;;;;;;;2.78;1.40;;;;;;;;;;5006064;28;20060;-70
2022/01/25 03:37:31;;;;;;;4.18;1.42;;;;;;;;;;5005968;28;20026;-71
2022/01/25 03:39:57;;;;;;;6.22;1.80;;;;;;;;;;5004892;28;20026;-70
2022/01/25 03:42:24;;;;;;;3.88;1.50;;;;;;;;;;5003875;28;20548;-70
2022/01/25 03:44:50;;;;;;;3.70;1.75;;;;;;;;;;5003370;28;20045;-70
2022/01/25 03:47:20;;;;;;;3.10;1.48;;;;;;;;;;5005659;28;20034;-70
2022/01/25 03:49:48;;;;;;;2.72;1.80;;;;;;;;;;4998169;28;20088;-70
2022/01/25 03:52:15;;;;;;;2.55;1.40;;;;;;;;;;5005670;28;20541;-70
2022/01/25 03:54:42;;;;;;;2.45;1.50;;;;;;;;;;5005112;28;20113;-70
2022/01/25 03:57:08;;;;;;;6.60;1.50;;;;;;;;;;4999111;28;20685;-70
2022/01/25 03:59:34;;;;;;;5.47;1.40;;;;;;;;;;5005509;28;20061;-84
2022/01/25 04:02:00;;;;;;;2.47;1.52;;;;;;;;;;5002686;28;20054;-69
2022/01/25 04:04:29;;;;;;;2.58;1.70;;;;;;;;;;5002835;28;20033;-69
2022/01/25 04:06:55;;;;;;;3.15;1.50;;;;;;;;;;4993044;28;20037;-70
2022/01/25 04:09:21;;;;;;;4.78;1.50;;;;;;;;;;5001534;28;20041;-70
2022/01/25 04:11:47;;;;;;;2.20;1.55;;;;;;;;;;5002945;28;20030;-70
2022/01/25 04:14:14;;;;;;;3.97;1.98;;;;;;;;;;5002649;28;20030;-70
2022/01/25 04:19:44;;;;;;;3.85;1.25;;;;;;;;;;4985146;28;20037;-70
2022/01/25 04:27:24;;;;;;;2.72;1.70;;;;;;;;;;5001798;28;20492;-70
2022/01/25 04:29:51;;;;;;;3.05;1.40;;;;;;;;;;5001581;28;20587;-70
2022/01/25 04:32:18;;;;;;;3.67;1.80;;;;;;;;;;5002831;28;20469;-71
2022/01/25 04:35:08;;;;;;;5.93;1.35;;;;;;;;;;5002678;28;20037;-70
2022/01/25 04:51:33;;;;;;;3.85;1.30;;;;;;;;;;5003604;28;20398;-76
2022/01/25 04:54:17;;;;;;;2.80;1.45;;;;;;;;;;5004579;28;20052;-70
2022/01/25 05:02:12;;;;;;;3.05;1.45;;;;;;;;;;4991953;28;20089;-70
2022/01/25 05:04:44;;;;;;;4.38;1.58;;;;;;;;;;4997321;28;20037;-78
2022/01/25 05:09:55;;;;;;;4.15;1.45;;;;;;;;;;5004382;28;20483;-70
2022/01/25 05:12:37;;;;;;;3.28;1.55;;;;;;;;;;4996459;28;20069;-70
2022/01/25 05:15:27;;;;;;;2.38;1.45;;;;;;;;;;4998032;28;20490;-82
2022/01/25 05:23:22;;;;;;;4.00;1.52;;;;;;;;;;5000120;28;20040;-70
2022/01/25 05:25:48;;;;;;;4.15;1.58;;;;;;;;;;5001441;28;20133;-70
2022/01/25 05:28:14;;;;;;;2.78;1.27;;;;;;;;;;5001368;28;20100;-70
2022/01/25 05:30:41;;;;;;;3.55;1.45;;;;;;;;;;5000738;28;20036;-70
2022/01/25 05:33:07;;;;;;;6.57;1.88;;;;;;;;;;5001454;28;20028;-70
2022/01/25 05:35:33;;;;;;;2.63;1.48;;;;;;;;;;5001216;28;20025;-70
2022/01/25 05:38:00;;;;;;;5.38;1.70;;;;;;;;;;5001808;28;20370;-85
2022/01/25 05:40:42;;;;;;;4.43;1.85;;;;;;;;;;4999954;28;20030;-71
2022/01/25 05:48:20;;;;;;;3.42;1.60;;;;;;;;;;5000864;28;20030;-82
2022/01/25 05:50:46;;;;;;;3.50;1.58;;;;;;;;;;5001569;28;20026;-70
2022/01/25 05:53:13;;;;;;;2.75;1.55;;;;;;;;;;5000235;28;20034;-70
2022/01/25 05:55:39;;;;;;;3.65;1.70;;;;;;;;;;5000117;28;20502;-70
2022/01/25 05:58:05;;;;;;;3.97;1.63;;;;;;;;;;4998327;28;20063;-70
2022/01/25 06:00:31;;;;;;;3.80;1.63;;;;;;;;;;5000283;28;20607;-70
2022/01/25 06:02:57;;;;;;;2.60;1.25;;;;;;;;;;5001179;28;20631;-70
2022/01/25 06:05:25;;;;;;;4.07;1.42;;;;;;;;;;4999157;28;20045;-70
2022/01/25 06:07:52;;;;;;;4.20;1.50;;;;;;;;;;5000600;28;20085;-71
2022/01/25 06:10:18;;;;;;;3.78;1.50;;;;;;;;;;5000234;28;20042;-71
2022/01/25 06:12:45;;;;;;;3.70;1.60;;;;;;;;;;4999382;28;20026;-70
2022/01/25 06:15:14;;;;;;;3.17;2.13;;;;;;;;;;5001469;28;20509;-71
2022/01/25 06:17:40;;;;;;;2.45;1.50;;;;;;;;;;4999561;28;20059;-70
2022/01/25 06:20:07;;;;;;;3.08;1.52;;;;;;;;;;4999476;28;20034;-70
2022/01/25 06:22:33;;;;;;;4.07;1.65;;;;;;;;;;5000153;28;20025;-77
2022/01/25 06:25:00;;;;;;;8.50;2.35;;;;;;;;;;4997578;28;20049;-70
2022/01/25 06:27:26;;;;;;;5.80;2.00;;;;;;;;;;4999971;28;20068;-70
2022/01/25 06:29:52;;;;;;;2.83;1.58;;;;;;;;;;4999857;28;20037;-70
2022/01/25 06:32:19;;;;;;;3.22;1.65;;;;;;;;;;5001296;28;20029;-71
2022/01/25 06:34:46;;;;;;;5.53;2.15;;;;;;;;;;4995685;28;20040;-71
2022/01/25 06:37:12;;;;;;;3.08;1.63;;;;;;;;;;5000625;28;20608;-71
2022/01/25 06:39:39;;;;;;;4.20;2.20;;;;;;;;;;5000366;28;20033;-70
2022/01/25 06:42:06;;;;;;;4.32;2.00;;;;;;;;;;5000621;28;20071;-70
2022/01/25 06:44:34;;;;;;;5.78;1.95;;;;;;;;;;4996873;28;20745;-71
2022/01/25 06:47:01;;;;;;;4.75;1.70;;;;;;;;;;5000099;28;20030;-70
2022/01/25 06:49:27;;;;;;;3.80;1.75;;;;;;;;;;5000402;28;20100;-71
2022/01/25 06:51:53;;;;;;;6.13;1.90;;;;;;;;;;5000734;28;20029;-75
2022/01/25 06:54:19;;;;;;;4.18;1.75;;;;;;;;;;5000638;28;20065;-71
2022/01/25 06:56:46;;;;;;;2.75;1.88;;;;;;;;;;5000055;28;20068;-70
2022/01/25 06:59:13;;;;;;;4.22;2.13;;;;;;;;;;4998896;28;20113;-70
2022/01/25 07:01:39;;;;;;;7.38;2.30;;;;;;;;;;5000359;28;20079;-73
2022/01/25 07:04:05;;;;;;;4.03;2.08;;;;;;;;;;5000906;28;20034;-71
2022/01/25 07:06:31;;;;;;;4.97;2.17;;;;;;;;;;5000528;28;20037;-70
2022/01/25 07:08:58;;;;;;;4.80;2.20;;;;;;;;;;4999893;28;20145;-70
2022/01/25 07:11:24;;;;;;;3.08;1.98;;;;;;;;;;4998744;28;20108;-71
2022/01/25 07:13:50;;;;;;;6.45;3.08;;;;;;;;;;5000010;28;20033;-71
2022/01/25 07:16:17;;;;;;;7.63;2.38;;;;;;;;;;5000574;28;20486;-70
2022/01/25 07:18:43;;;;;;;36.15;4.55;;;;;;;;;;4997983;28;20863;-69
2022/01/25 07:21:09;;;;;;;5.20;1.90;;;;;;;;;;5000172;28;20390;-69
2022/01/25 07:23:35;;;;;;;6.13;2.10;;;;;;;;;;4997986;28;20041;-70
2022/01/25 07:26:01;;;;;;;3.42;1.90;;;;;;;;;;4999494;28;20049;-68
2022/01/25 07:28:29;;;;;;;3.88;2.42;;;;;;;;;;5000005;28;20026;-69
2022/01/25 07:30:55;;;;;;;3.53;2.13;;;;;;;;;;4999676;28;20385;-69
2022/01/25 07:33:21;;;;;;;6.60;2.40;;;;;;;;;;4999734;28;20080;-80
2022/01/25 07:35:47;;;;;;;7.03;2.70;;;;;;;;;;4998204;28;20068;-69
2022/01/25 07:38:17;;;;;;;7.22;3.10;;;;;;;;;;5000123;28;20495;-68
2022/01/25 07:40:44;;;;;;;11.88;6.00;;;;;;;;;;5000166;28;20021;-70
2022/01/25 07:43:10;;;;;;;6.85;4.05;;;;;;;;;;4990408;28;20018;-69
2022/01/25 07:45:37;;;;;;;6.07;2.72;;;;;;;;;;4998831;28;20018;-69
2022/01/25 07:48:07;;;;;;;4.45;2.28;;;;;;;;;;4999759;28;20030;-80
2022/01/25 07:50:33;;;;;;;4.28;2.30;;;;;;;;;;4998773;28;20080;-69
2022/01/25 07:53:00;;;;;;;4.15;2.75;;;;;;;;;;4999515;28;20030;-69
2022/01/25 07:55:26;;;;;;;6.45;2.38;;;;;;;;;;4998673;28;20880;-69
2022/01/25 07:57:52;;;;;;;4.00;2.10;;;;;;;;;;5002005;28;20097;-69
2022/01/25 08:00:19;;;;;;;4.88;2.05;;;;;;;;;;5002781;28;20543;-76
2022/01/25 08:02:46;;;;;;;7.20;2.72;;;;;;;;;;5002155;28;20038;-69
2022/01/25 08:05:13;;;;;;;5.00;2.72;;;;;;;;;;5002923;28;20117;-69
2022/01/25 08:07:39;;;;;;;5.07;2.58;;;;;;;;;;5003323;28;20083;-69
2022/01/25 08:10:06;;;;;;;2.95;2.00;;;;;;;;;;5003104;28;20045;-69
2022/01/25 08:12:32;;;;;;;9.55;2.40;;;;;;;;;;5002713;28;20018;-86
2022/01/25 08:15:00;;;;;;;4.25;2.42;;;;;;;;;;5001640;28;20046;-69
2022/01/25 08:17:26;;;;;;;3.95;2.05;;;;;;;;;;5003305;28;20108;-70
2022/01/25 08:19:52;;;;;;;4.47;2.22;;;;;;;;;;5003232;28;20028;-68
2022/01/25 08:22:19;;;;;;;4.65;2.10;;;;;;;;;;5002328;28;20029;-68
2022/01/25 08:24:45;;;;;;;3.08;1.80;;;;;;;;;;5002524;28;20105;-69
2022/01/25 08:27:12;;;;;;;4.78;2.15;;;;;;;;;;5001386;28;20498;-70
2022/01/25 08:29:41;;;;;;;8.05;2.05;;;;;;;;;;5003137;28;20022;-69
2022/01/25 08:32:07;;;;;;;3.67;2.00;;;;;;;;;;5003076;28;20081;-91
2022/01/25 08:34:34;;;;;;;3.75;1.65;;;;;;;;;;5002340;28;20497;-69
2022/01/25 08:37:00;;;;;;;2.90;1.80;;;;;;;;;;5000785;28;20116;-67
2022/01/25 08:39:28;;;;;;;4.25;2.08;;;;;;;;;;5002632;28;20030;-69
2022/01/25 08:41:54;;;;;;;4.38;2.30;;;;;;;;;;5001349;28;20101;-69
2022/01/25 08:44:21;;;;;;;3.42;2.30;;;;;;;;;;4999831;28;20083;-68
2022/01/25 08:46:47;;;;;;;5.28;2.30;;;;;;;;;;5002573;28;20034;-69
2022/01/25 08:49:13;;;;;;;20.58;2.75;;;;;;;;;;5002981;28;20108;-69
2022/01/25 08:51:39;;;;;;;4.25;1.85;;;;;;;;;;5002641;28;20030;-71
2022/01/25 08:54:06;;;;;;;6.53;1.92;;;;;;;;;;5002155;28;20029;-88
2022/01/25 08:56:32;;;;;;;4.28;2.05;;;;;;;;;;5001861;28;20034;-70
2022/01/25 08:58:58;;;;;;;3.03;1.92;;;;;;;;;;5001030;28;20037;-68
2022/01/25 09:01:25;;;;;;;3.83;2.33;;;;;;;;;;5002212;28;20089;-68
2022/01/25 09:03:54;;;;;;;4.90;2.20;;;;;;;;;;5002052;28;20045;-67
2022/01/25 09:06:20;;;;;;;2.80;1.92;;;;;;;;;;5001600;28;20500;-68
2022/01/25 09:08:47;;;;;;;5.45;1.90;;;;;;;;;;5000399;28;20472;-69
2022/01/25 09:11:13;;;;;;;4.68;2.17;;;;;;;;;;5001685;28;20034;-68
2022/01/25 09:13:39;;;;;;;2.75;2.00;;;;;;;;;;5002187;28;20030;-68
2022/01/25 09:16:07;;;;;;;4.05;1.80;;;;;;;;;;5001604;28;20048;-69
2022/01/25 09:18:33;;;;;;;4.43;1.85;;;;;;;;;;5000491;28;20088;-68
2022/01/25 09:20:59;;;;;;;5.00;1.88;;;;;;;;;;5002266;28;20583;-69
2022/01/25 09:23:26;;;;;;;3.97;1.98;;;;;;;;;;4999925;28;20034;-68
2022/01/25 09:25:53;;;;;;;3.53;1.70;;;;;;;;;;5001930;28;20164;-69
2022/01/25 09:28:19;;;;;;;2.45;1.88;;;;;;;;;;5001856;28;20160;-68
2022/01/25 09:30:46;;;;;;;6.82;2.05;;;;;;;;;;5001727;28;20103;-69
2022/01/25 09:33:12;;;;;;;5.55;1.73;;;;;;;;;;4999708;28;20790;-69
2022/01/25 09:35:38;;;;;;;2.10;1.60;;;;;;;;;;5001364;28;20038;-92
2022/01/25 09:38:05;;;;;;;5.15;2.00;;;;;;;;;;5001011;28;20037;-69
2022/01/25 09:40:31;;;;;;;3.25;2.15;;;;;;;;;;5001311;28;20030;-68
2022/01/25 09:42:58;;;;;;;3.00;1.83;;;;;;;;;;4998060;28;20862;-69
2022/01/25 09:45:24;;;;;;;3.13;1.85;;;;;;;;;;5000765;28;20087;-69
2022/01/25 09:47:51;;;;;;;3.58;1.90;;;;;;;;;;5000849;28;20101;-69
2022/01/25 09:50:17;;;;;;;4.78;2.30;;;;;;;;;;5001252;28;20092;-69
2022/01/25 09:52:44;;;;;;;3.13;2.08;;;;;;;;;;5000716;28;20026;-69
2022/01/25 09:55:12;;;;;;;3.47;1.80;;;;;;;;;;5000695;28;20053;-72
2022/01/25 09:57:38;;;;;;;3.92;2.08;;;;;;;;;;5000112;28;20572;-68
2022/01/25 10:00:06;;;;;;;2.75;1.88;;;;;;;;;;5000685;28;20096;-67
2022/01/25 10:03:10;;;;;;;4.13;1.88;;;;;;;;;;5001005;28;20022;-67
2022/01/25 10:05:38;;;;;;;3.60;1.80;;;;;;;;;;4989742;28;20133;-89
2022/01/25 10:08:07;;;;;;;3.50;1.88;;;;;;;;;;5000991;28;20477;-70
2022/01/25 10:10:41;;;;;;;3.17;1.92;;;;;;;;;;4999590;28;20030;-69
2022/01/25 10:13:14;;;;;;;2.20;1.40;;;;;;;;;;5000316;28;20058;-70
2022/01/25 10:15:41;;;;;;;2.60;1.92;;;;;;;;;;5000796;28;20041;-70
2022/01/25 10:18:07;;;;;;;3.83;1.67;;;;;;;;;;5000949;28;20030;-70
2022/01/25 10:20:35;;;;;;;3.85;1.80;;;;;;;;;;5000337;28;20058;-90
2022/01/25 10:23:05;;;;;;;6.28;1.83;;;;;;;;;;5000252;28;20052;-69
2022/01/25 10:25:35;;;;;;;3.47;1.70;;;;;;;;;;4998893;28;20061;-69
2022/01/25 10:28:03;;;;;;;4.18;1.52;;;;;;;;;;5000401;28;20657;-69
2022/01/25 10:30:40;;;;;;;3.42;1.83;;;;;;;;;;4999923;28;20092;-69
2022/01/25 10:33:17;;;;;;;4.47;2.03;;;;;;;;;;4992144;28;20042;-69
2022/01/25 10:35:44;;;;;;;2.88;2.10;;;;;;;;;;4999999;28;20121;-69
2022/01/25 10:38:25;;;;;;;4.18;2.00;;;;;;;;;;4998983;28;20034;-69
2022/01/25 10:41:03;;;;;;;7.43;2.27;;;;;;;;;;5000391;28;20490;-69
2022/01/25 10:43:29;;;;;;;2.97;1.98;;;;;;;;;;4998714;28;20423;-70
2022/01/25 10:46:06;;;;;;;2.33;1.65;;;;;;;;;;5002548;28;20021;-93
2022/01/25 10:48:32;;;;;;;4.32;1.95;;;;;;;;;;5001167;28;20572;-69
2022/01/25 10:51:10;;;;;;;4.93;2.28;;;;;;;;;;4999424;28;20250;-69
2022/01/25 10:53:37;;;;;;;4.10;1.73;;;;;;;;;;5000312;28;20018;-69
2022/01/25 10:56:04;;;;;;;3.42;1.67;;;;;;;;;;5000279;28;20042;-69
2022/01/25 10:58:30;;;;;;;2.85;1.67;;;;;;;;;;4998939;28;20040;-74
2022/01/25 11:00:59;;;;;;;5.22;1.75;;;;;;;;;;5000456;28;20044;-82
2022/01/25 11:03:35;;;;;;;13.30;2.30;;;;;;;;;;4993168;28;20025;-69
2022/01/25 11:06:12;;;;;;;4.22;2.13;;;;;;;;;;4998797;28;20877;-69
2022/01/25 11:08:39;;;;;;;3.67;2.13;;;;;;;;;;4998842;28;20040;-76
2022/01/25 11:11:09;;;;;;;3.20;1.85;;;;;;;;;;5000143;28;20036;-70
2022/01/25 11:13:37;;;;;;;4.85;1.85;;;;;;;;;;4992057;28;20381;-69
2022/01/25 11:16:05;;;;;;;2.53;1.70;;;;;;;;;;4999937;28;20117;-69
2022/01/25 11:18:32;;;;;;;3.45;1.60;;;;;;;;;;5000132;28;20057;-69
2022/01/25 11:20:59;;;;;;;5.80;1.95;;;;;;;;;;4998641;28;20022;-69
2022/01/25 11:23:25;;;;;;;3.88;1.75;;;;;;;;;;4999901;28;20457;-69
2022/01/25 11:25:52;;;;;;;3.30;2.20;;;;;;;;;;4999777;28;20671;-69
2022/01/25 11:28:18;;;;;;;3.20;1.88;;;;;;;;;;4999029;28;20029;-69
2022/01/25 11:30:45;;;;;;;5.15;1.80;;;;;;;;;;4998136;28;20529;-69
2022/01/25 11:33:12;;;;;;;6.18;2.03;;;;;;;;;;5003608;28;20053;-69
2022/01/25 11:35:39;;;;;;;2.25;1.63;;;;;;;;;;5003023;28;20539;-70
2022/01/25 11:38:05;;;;;;;3.35;1.80;;;;;;;;;;5004030;28;20033;-69
2022/01/25 11:40:35;;;;;;;6.03;2.35;;;;;;;;;;5004184;28;20738;-69
2022/01/25 11:43:02;;;;;;;2.85;1.70;;;;;;;;;;5000601;28;20034;-69
2022/01/25 11:45:30;;;;;;;3.63;1.85;;;;;;;;;;5004544;28;20032;-69
2022/01/25 11:47:57;;;;;;;4.88;2.30;;;;;;;;;;5004101;28;20036;-69
2022/01/25 11:50:31;;;;;;;3.47;2.03;;;;;;;;;;5003506;28;20556;-69
2022/01/25 11:53:06;;;;;;;3.58;1.63;;;;;;;;;;5001773;28;20030;-70
2022/01/25 11:55:42;;;;;;;2.67;1.55;;;;;;;;;;5006451;28;20042;-69
2022/01/25 11:58:10;;;;;;;5.25;1.92;;;;;;;;;;5004563;28;20022;-70
2022/01/25 12:00:36;;;;;;;8.30;1.92;;;;;;;;;;5005423;28;20033;-71
2022/01/25 12:03:04;;;;;;;4.32;1.75;;;;;;;;;;5003483;28;20528;-71
2022/01/25 12:05:33;;;;;;;4.20;1.60;;;;;;;;;;5004197;28;20037;-72
2022/01/25 12:08:11;;;;;;;3.03;1.90;;;;;;;;;;5004513;28;20451;-70
2022/01/25 12:10:43;;;;;;;3.17;1.90;;;;;;;;;;5004636;28;20072;-73
2022/01/25 12:13:17;;;;;;;3.33;1.70;;;;;;;;;;5004637;28;20022;-72
2022/01/25 12:15:45;;;;;;;4.28;2.10;;;;;;;;;;5003211;28;20037;-72
2022/01/25 12:18:31;;;;;;;4.05;1.90;;;;;;;;;;5004794;28;20062;-71
2022/01/25 12:20:57;;;;;;;3.45;2.10;;;;;;;;;;4996152;28;20493;-72
2022/01/25 12:23:43;;;;;;;10.73;2.47;;;;;;;;;;5004237;28;20041;-72
2022/01/25 12:26:15;;;;;;;6.45;2.67;;;;;;;;;;4997440;28;20065;-72
2022/01/25 12:28:45;;;;;;;3.75;1.67;;;;;;;;;;5003082;28;20473;-72
2022/01/25 12:31:15;;;;;;;4.18;1.63;;;;;;;;;;5004382;28;20065;-72
2022/01/25 12:33:42;;;;;;;4.20;1.90;;;;;;;;;;5003888;28;20647;-72
2022/01/25 12:36:09;;;;;;;3.15;1.70;;;;;;;;;;5004109;28;20042;-78
2022/01/25 12:38:49;;;;;;;3.05;1.90;;;;;;;;;;5002752;28;20022;-72
2022/01/25 12:41:16;;;;;;;5.07;1.90;;;;;;;;;;4997104;28;20445;-71
2022/01/25 12:43:51;;;;;;;4.57;2.08;;;;;;;;;;5002350;28;20026;-72
2022/01/25 12:46:24;;;;;;;6.13;3.25;;;;;;;;;;5003668;28;20029;-71
2022/01/25 12:48:53;;;;;;;5.50;3.50;;;;;;;;;;5003646;28;20500;-71
2022/01/25 12:51:24;;;;;;;3.70;1.95;;;;;;;;;;4999779;28;20422;-73
2022/01/25 12:53:51;;;;;;;5.25;1.90;;;;;;;;;;5003807;28;20096;-71
2022/01/25 12:56:22;;;;;;;3.08;1.92;;;;;;;;;;5000180;28;20081;-71
2022/01/25 12:58:51;;;;;;;7.18;2.25;;;;;;;;;;4998272;28;20370;-72
2022/01/25 13:01:19;;;;;;;2.70;1.85;;;;;;;;;;5001134;28;20227;-71
2022/01/25 13:03:50;;;;;;;4.38;2.00;;;;;;;;;;4999422;28;20791;-71
2022/01/25 13:06:17;;;;;;;6.32;2.83;;;;;;;;;;4999784;28;20123;-71
2022/01/25 13:08:57;;;;;;;4.50;2.30;;;;;;;;;;4999452;28;20113;-71
2022/01/25 13:11:40;;;;;;;3.22;1.90;;;;;;;;;;5001095;28;20025;-71
2022/01/25 13:16:38;;;;;;;;;;;;;;;;;;5001676;28;20042;-72
2022/01/25 13:19:04;;;;;;;6.90;2.00;;;;;;;;;;5001054;28;19913;-71
2022/01/25 13:21:41;;;;;;;5.32;2.30;;;;;;;;;;5000761;28;20541;-71
2022/01/25 13:24:09;;;;;;;4.68;2.10;;;;;;;;;;5000728;28;20108;-72
2022/01/25 13:26:39;;;;;;;3.22;2.10;;;;;;;;;;5000779;28;20056;-71
2022/01/25 13:32:19;;;;;;;7.68;2.17;;;;;;;;;;4972226;28;20149;-71
2022/01/25 13:34:59;;;;;;;3.17;1.90;;;;;;;;;;5001192;28;20393;-71
2022/01/25 13:37:26;;;;;;;4.40;1.80;;;;;;;;;;4999532;28;20477;-71
2022/01/25 13:39:57;;;;;;;22.23;2.35;;;;;;;;;;4994663;28;20030;-74
2022/01/25 13:42:28;;;;;;;13.63;3.38;;;;;;;;;;4994605;28;20029;-71
2022/01/25 13:47:59;;;;;;;3.60;2.40;;;;;;;;;;4995748;28;20040;-70
2022/01/25 13:50:26;;;;;;;4.80;2.55;;;;;;;;;;4997672;28;20584;-71
2022/01/25 13:52:52;;;;;;;4.63;2.20;;;;;;;;;;4991307;28;20029;-72
2022/01/25 13:55:18;;;;;;;12.48;3.10;;;;;;;;;;4992974;28;20034;-73
2022/01/25 13:57:44;;;;;;;3.92;2.20;;;;;;;;;;4998821;28;20054;-72
2022/01/25 14:00:11;;;;;;;3.95;2.30;;;;;;;;;;4997210;28;20044;-72
2022/01/25 14:02:38;;;;;;;6.05;2.28;;;;;;;;;;4998421;28;20028;-73
2022/01/25 14:05:06;;;;;;;3.53;2.00;;;;;;;;;;4998904;28;20410;-74
2022/01/25 14:07:36;;;;;;;3.95;2.72;;;;;;;;;;4999964;28;20032;-73
2022/01/25 14:10:07;;;;;;;5.88;2.78;;;;;;;;;;4997497;28;20097;-72
2022/01/25 14:23:35;;;;;;;17.42;2.83;;;;;;;;;;4995621;28;20081;-72
2022/01/25 14:26:03;;;;;;;4.07;2.22;;;;;;;;;;4997754;28;20065;-73
2022/01/25 14:28:32;;;;;;;3.35;2.33;;;;;;;;;;4999152;28;20029;-73
2022/01/25 14:31:01;;;;;;;3.65;2.03;;;;;;;;;;4998219;28;20383;-72
2022/01/25 14:33:30;;;;;;;4.75;1.90;;;;;;;;;;4996260;28;20052;-73
2022/01/25 14:36:00;;;;;;;3.42;2.05;;;;;;;;;;4998801;28;20115;-72
2022/01/25 14:38:31;;;;;;;2.80;1.92;;;;;;;;;;4994161;28;20030;-72
2022/01/25 14:41:08;;;;;;;3.10;1.80;;;;;;;;;;4999073;28;20644;-72
2022/01/25 14:43:36;;;;;;;4.35;1.92;;;;;;;;;;4996993;28;20026;-72
2022/01/25 14:46:14;;;;;;;4.03;2.35;;;;;;;;;;4998498;28;20026;-76
2022/01/25 14:48:43;;;;;;;4.20;2.03;;;;;;;;;;4994478;28;20061;-72
2022/01/25 14:51:11;;;;;;;6.97;2.20;;;;;;;;;;4998717;28;20356;-72
2022/01/25 14:53:37;;;;;;;2.90;1.95;;;;;;;;;;4995655;28;20026;-72
2022/01/25 14:56:05;;;;;;;5.18;2.20;;;;;;;;;;4997874;28;20041;-72
2022/01/25 15:01:17;;;;;;;4.32;2.08;;;;;;;;;;4998603;28;20080;-72
2022/01/25 15:03:45;;;;;;;3.65;2.10;;;;;;;;;;4997977;28;20030;-72
2022/01/25 15:06:14;;;;;;;3.95;1.90;;;;;;;;;;4997579;28;20026;-72
2022/01/25 15:08:48;;;;;;;2.60;1.90;;;;;;;;;;4998311;28;20030;-72
2022/01/25 15:11:14;;;;;;;4.22;2.03;;;;;;;;;;4998772;28;20076;-73
2022/01/25 15:13:41;;;;;;;3.60;1.70;;;;;;;;;;4996833;28;20732;-72
2022/01/25 15:16:07;;;;;;;4.85;2.08;;;;;;;;;;4998087;28;20113;-72
2022/01/25 15:18:36;;;;;;;3.15;2.00;;;;;;;;;;4996638;28;20025;-73
2022/01/25 15:21:07;;;;;;;3.00;1.90;;;;;;;;;;4993280;28;20040;-72
2022/01/25 15:23:35;;;;;;;2.90;1.98;;;;;;;;;;4996652;28;20302;-73
2022/01/25 15:26:07;;;;;;;4.07;2.15;;;;;;;;;;4997831;28;20591;-72
2022/01/25 15:28:39;;;;;;;6.57;2.20;;;;;;;;;;4997848;28;20093;-72
2022/01/25 15:31:06;;;;;;;5.00;2.03;;;;;;;;;;4993048;28;20084;-72
2022/01/25 15:33:33;;;;;;;4.07;2.25;;;;;;;;;;4998330;28;20140;-72
2022/01/25 15:35:59;;;;;;;3.65;2.10;;;;;;;;;;4996929;28;20034;-72
2022/01/25 15:38:26;;;;;;;6.72;2.30;;;;;;;;;;4997876;28;20123;-72
2022/01/25 15:40:52;;;;;;;3.85;2.05;;;;;;;;;;4998225;28;20030;-72
2022/01/25 15:43:23;;;;;;;3.20;1.83;;;;;;;;;;4996553;28;20130;-73
2022/01/25 15:46:18;;;;;;;4.40;2.10;;;;;;;;;;4996545;28;20048;-72
2022/01/25 15:48:39;;;;;;;3.60;2.05;;;;;;;;;;4995758;28;20030;-73
2022/01/25 15:51:05;;;;;;;4.85;1.98;;;;;;;;;;4997919;28;20529;-73
2022/01/25 15:53:31;;;;;;;5.28;2.03;;;;;;;;;;4997801;28;20030;-76
2022/01/25 15:55:58;;;;;;;2.92;2.00;;;;;;;;;;4997083;28;20034;-75
2022/01/25 15:58:24;;;;;;;2.97;1.83;;;;;;;;;;4997003;28;20670;-73
2022/01/25 16:00:50;;;;;;;12.73;3.65;;;;;;;;;;4997571;28;20499;-72
2022/01/25 16:03:20;;;;;;;4.43;2.63;;;;;;;;;;4997898;28;20073;-72
2022/01/25 16:05:47;;;;;;;3.42;2.05;;;;;;;;;;4996533;28;20563;-72
2022/01/25 16:08:16;;;;;;;5.82;2.70;;;;;;;;;;4997734;28;20033;-71
2022/01/25 16:10:45;;;;;;;3.70;2.28;;;;;;;;;;4994985;28;20034;-72
2022/01/25 16:13:12;;;;;;;4.38;2.72;;;;;;;;;;4997885;28;20033;-73
2022/01/25 16:15:38;;;;;;;4.32;2.70;;;;;;;;;;4998350;28;20447;-72
2022/01/25 16:18:04;;;;;;;3.42;2.30;;;;;;;;;;4998312;28;20091;-77
2022/01/25 16:20:32;;;;;;;3.15;2.38;;;;;;;;;;4999507;28;20030;-77
2022/01/25 16:22:58;;;;;;;4.38;2.60;;;;;;;;;;5001417;28;20784;-71
2022/01/25 16:25:25;;;;;;;4.57;2.30;;;;;;;;;;4995917;28;20041;-71
2022/01/25 16:27:51;;;;;;;3.00;2.10;;;;;;;;;;5001386;28;20061;-71
2022/01/25 16:30:18;;;;;;;5.13;2.33;;;;;;;;;;5001117;28;20034;-72
2022/01/25 16:32:46;;;;;;;5.63;2.10;;;;;;;;;;5001219;28;20030;-71
2022/01/25 16:35:16;;;;;;;6.07;2.50;;;;;;;;;;4999130;28;20042;-74
2022/01/25 16:37:42;;;;;;;2.92;2.00;;;;;;;;;;5001053;28;20076;-71
2022/01/25 16:40:09;;;;;;;4.03;2.13;;;;;;;;;;4997234;28;20103;-72
2022/01/25 16:42:35;;;;;;;3.28;2.20;;;;;;;;;;5001207;28;20026;-73
2022/01/25 16:45:02;;;;;;;8.90;2.30;;;;;;;;;;5000738;28;20040;-73
2022/01/25 16:47:31;;;;;;;4.10;1.83;;;;;;;;;;5003300;28;20026;-75
2022/01/25 16:49:58;;;;;;;2.40;1.70;;;;;;;;;;4999818;28;20463;-73
2022/01/25 16:52:25;;;;;;;3.08;1.77;;;;;;;;;;5003285;28;20037;-71
2022/01/25 16:54:51;;;;;;;2.97;1.83;;;;;;;;;;5003415;28;20341;-73
2022/01/25 16:57:17;;;;;;;2.70;1.70;;;;;;;;;;5003561;28;20038;-74
2022/01/25 16:59:43;;;;;;;4.32;1.83;;;;;;;;;;5002067;28;20018;-71
2022/01/25 17:02:12;;;;;;;3.17;2.05;;;;;;;;;;5002467;28;20030;-73
2022/01/25 17:04:39;;;;;;;3.60;1.55;;;;;;;;;;5002648;28;20540;-73